Time;durP1;ratioP1;P1;durP2;ratioP2;P2;SDS_P1;SDS_P2;PMS_P1;PMS_P2;Temp;Humidity;BMP_temperature;BMP_pressure;BME280_temperature;BME280_humidity;BME280_pressure;Samples;Min_cycle;Max_cycle;Signal;HPM_P1;HPM_P2
2021/05/02 00:01:48;;;;;;;12.40;6.67;;;17.70;99.90;;;;;;6244691;28;20489;-68
2021/05/02 00:04:50;;;;;;;14.10;7.63;;;17.80;99.90;;;;;;6251343;28;20816;-68
2021/05/02 00:07:56;;;;;;;10.53;6.63;;;17.80;99.90;;;;;;6252856;28;20474;-67
2021/05/02 00:10:59;;;;;;;11.77;6.57;;;17.70;99.90;;;;;;6252040;28;20475;-67
2021/05/02 00:14:03;;;;;;;11.23;6.07;;;17.80;99.90;;;;;;6251721;28;20471;-67
2021/05/02 00:17:06;;;;;;;9.60;6.73;;;17.80;99.90;;;;;;6251501;28;20475;-67
2021/05/02 00:20:16;;;;;;;8.90;6.80;;;17.90;99.90;;;;;;6251637;28;20475;-67
2021/05/02 00:23:19;;;;;;;6.97;6.27;;;17.90;99.90;;;;;;6251972;28;20987;-67
2021/05/02 00:26:24;;;;;;;9.63;6.80;;;17.90;99.90;;;;;;6253567;28;20482;-67
2021/05/02 00:29:27;;;;;;;8.30;6.40;;;18.00;99.90;;;;;;6252897;28;20997;-67
2021/05/02 00:32:29;;;;;;;9.17;7.00;;;17.90;99.90;;;;;;6253289;28;20479;-67
2021/05/02 00:35:32;;;;;;;11.27;7.27;;;17.80;99.90;;;;;;6253259;28;20466;-66
2021/05/02 00:38:36;;;;;;;12.70;6.73;;;17.80;99.90;;;;;;6253359;28;20474;-66
2021/05/02 00:41:43;;;;;;;7.63;6.83;;;17.70;99.90;;;;;;6253090;28;20475;-67
2021/05/02 00:44:48;;;;;;;12.27;7.50;;;17.70;99.90;;;;;;6253209;28;20471;-67
2021/05/02 00:47:58;;;;;;;12.40;7.17;;;17.60;99.90;;;;;;6253040;28;20564;-67
2021/05/02 00:51:05;;;;;;;9.37;6.37;;;17.70;99.90;;;;;;6253374;28;20486;-67
2021/05/02 00:54:32;;;;;;;10.27;5.97;;;17.60;99.90;;;;;;6252407;28;20971;-66
2021/05/02 00:57:50;;;;;;;13.97;7.20;;;17.60;99.90;;;;;;6252699;28;20440;-66
2021/05/02 01:00:55;;;;;;;13.87;8.77;;;17.50;99.90;;;;;;6252275;28;20475;-67
2021/05/02 01:04:00;;;;;;;13.63;6.97;;;17.50;99.90;;;;;;6252731;28;20467;-66
2021/05/02 01:07:04;;;;;;;15.67;7.50;;;17.50;99.90;;;;;;6238945;28;20780;-66
2021/05/02 01:10:11;;;;;;;7.83;6.43;;;17.50;99.90;;;;;;6252623;28;20467;-66
2021/05/02 01:13:17;;;;;;;16.37;7.83;;;17.60;99.90;;;;;;6252047;28;20819;-66
2021/05/02 01:16:25;;;;;;;13.43;7.10;;;17.60;99.90;;;;;;6252473;28;20476;-66
2021/05/02 01:19:28;;;;;;;9.80;7.37;;;17.70;99.90;;;;;;6252164;28;20482;-66
2021/05/02 01:22:36;;;;;;;8.90;6.70;;;17.70;99.90;;;;;;6252227;28;20791;-66
2021/05/02 01:25:39;;;;;;;6.60;5.77;;;17.70;99.90;;;;;;6251904;28;20490;-66
2021/05/02 01:28:43;;;;;;;11.33;7.47;;;17.70;99.90;;;;;;6252462;28;20473;-66
2021/05/02 01:31:45;;;;;;;13.70;7.13;;;17.70;99.90;;;;;;6251761;28;20975;-66
2021/05/02 01:34:48;;;;;;;13.53;7.97;;;17.60;99.90;;;;;;6251874;28;20494;-66
2021/05/02 01:37:52;;;;;;;11.83;6.80;;;17.60;99.90;;;;;;6251567;28;20999;-66
2021/05/02 01:40:55;;;;;;;9.40;7.23;;;17.60;99.90;;;;;;6251817;28;20487;-66
2021/05/02 01:43:58;;;;;;;9.80;7.00;;;17.60;99.90;;;;;;6251930;28;20470;-67
2021/05/02 01:47:06;;;;;;;10.70;7.73;;;17.60;99.90;;;;;;6251682;28;20480;-66
2021/05/02 01:50:11;;;;;;;11.87;8.00;;;17.60;99.90;;;;;;6251762;28;20467;-66
2021/05/02 01:53:14;;;;;;;10.73;7.77;;;17.60;99.90;;;;;;6251041;28;20974;-66
2021/05/02 01:56:17;;;;;;;10.57;7.10;;;17.50;99.90;;;;;;6251571;28;20471;-66
2021/05/02 01:59:21;;;;;;;10.33;7.10;;;17.50;99.90;;;;;;6250988;28;20813;-67
2021/05/02 02:02:26;;;;;;;16.10;7.27;;;17.50;99.90;;;;;;6251395;28;20466;-66
2021/05/02 02:05:30;;;;;;;16.33;7.13;;;17.50;99.90;;;;;;6250646;28;20479;-66
2021/05/02 02:08:33;;;;;;;9.50;7.60;;;17.50;99.90;;;;;;6250811;28;20478;-66
2021/05/02 02:11:37;;;;;;;8.80;7.03;;;17.40;99.90;;;;;;6241561;28;20495;-66
2021/05/02 02:14:40;;;;;;;12.50;6.97;;;17.30;99.90;;;;;;6251034;28;20471;-66
2021/05/02 02:17:44;;;;;;;12.63;8.67;;;17.30;99.90;;;;;;6250680;28;20490;-66
2021/05/02 02:20:50;;;;;;;12.83;7.93;;;17.30;99.90;;;;;;6251161;28;20462;-66
2021/05/02 02:23:59;;;;;;;9.53;7.80;;;17.20;99.90;;;;;;6250519;28;21017;-66
2021/05/02 02:27:03;;;;;;;11.20;7.80;;;17.10;99.90;;;;;;6250011;28;20819;-65
2021/05/02 02:30:08;;;;;;;12.73;9.07;;;17.10;99.90;;;;;;6250352;28;20471;-66
2021/05/02 02:33:10;;;;;;;10.07;8.07;;;17.00;99.90;;;;;;6250392;28;20509;-66
2021/05/02 02:36:14;;;;;;;9.53;7.80;;;17.10;99.90;;;;;;6250490;28;20470;-66
2021/05/02 02:39:16;;;;;;;9.17;7.60;;;17.10;99.90;;;;;;6249959;28;20482;-66
2021/05/02 02:42:24;;;;;;;11.20;9.17;;;17.10;99.90;;;;;;6250212;28;20466;-66
2021/05/02 02:45:26;;;;;;;12.20;8.30;;;17.20;99.90;;;;;;6249760;28;20494;-66
2021/05/02 02:48:29;;;;;;;8.63;7.73;;;17.20;99.90;;;;;;6249959;28;20474;-65
2021/05/02 02:51:34;;;;;;;10.77;7.90;;;17.20;99.90;;;;;;6249958;28;20930;-66
2021/05/02 02:54:38;;;;;;;12.43;8.50;;;17.20;99.90;;;;;;6250261;28;20478;-66
2021/05/02 02:57:46;;;;;;;11.10;8.60;;;17.20;99.90;;;;;;6250006;28;20450;-66
2021/05/02 03:00:49;;;;;;;10.37;7.60;;;17.20;99.90;;;;;;6250208;28;20431;-66
2021/05/02 03:03:54;;;;;;;10.17;8.40;;;17.20;99.90;;;;;;6249665;28;20467;-66
2021/05/02 03:07:00;;;;;;;9.97;7.60;;;17.10;99.90;;;;;;6249335;28;20474;-66
2021/05/02 03:10:02;;;;;;;8.93;6.80;;;17.10;99.90;;;;;;6249514;28;20467;-66
2021/05/02 03:13:05;;;;;;;9.50;7.63;;;17.00;99.90;;;;;;6245230;28;20474;-67
2021/05/02 03:16:08;;;;;;;9.20;6.67;;;16.90;99.90;;;;;;6249814;28;20462;-66
2021/05/02 03:19:15;;;;;;;9.90;7.93;;;17.00;99.90;;;;;;6249769;28;20482;-66
2021/05/02 03:22:30;;;;;;;8.50;6.80;;;17.00;99.90;;;;;;6250002;28;20474;-66
2021/05/02 03:25:35;;;;;;;11.70;8.90;;;17.00;99.90;;;;;;6249844;28;20482;-66
2021/05/02 03:28:43;;;;;;;11.03;6.83;;;16.90;99.90;;;;;;6249542;28;20955;-67
2021/05/02 03:31:52;;;;;;;10.37;7.60;;;16.90;99.90;;;;;;6249826;28;20467;-66
2021/05/02 03:34:58;;;;;;;12.43;7.60;;;16.90;99.90;;;;;;6249012;28;20831;-66
2021/05/02 03:38:09;;;;;;;10.67;8.00;;;16.90;99.90;;;;;;6251299;28;20599;-66
2021/05/02 03:41:12;;;;;;;10.70;7.00;;;16.80;99.90;;;;;;6254275;28;20998;-66
2021/05/02 03:44:15;;;;;;;7.40;6.57;;;16.80;99.90;;;;;;6254266;28;20989;-67
2021/05/02 03:47:17;;;;;;;9.93;7.17;;;16.80;99.90;;;;;;6254307;28;20485;-66
2021/05/02 03:50:19;;;;;;;11.70;8.00;;;16.70;99.90;;;;;;6254093;28;20487;-67
2021/05/02 03:53:21;;;;;;;8.27;7.50;;;16.70;99.90;;;;;;6254230;28;20479;-66
2021/05/02 03:56:31;;;;;;;13.70;6.77;;;16.70;99.90;;;;;;6254031;28;20463;-66
2021/05/02 03:59:37;;;;;;;9.47;6.70;;;16.70;99.90;;;;;;6254124;28;20970;-67
2021/05/02 04:02:39;;;;;;;8.67;6.60;;;16.70;99.90;;;;;;6253863;28;20785;-67
2021/05/02 04:05:42;;;;;;;11.80;7.03;;;16.70;99.90;;;;;;6253976;28;20478;-67
2021/05/02 04:08:44;;;;;;;8.20;6.23;;;16.70;99.90;;;;;;6253949;28;20632;-67
2021/05/02 04:11:46;;;;;;;8.40;6.00;;;16.80;99.90;;;;;;6254091;28;20471;-67
2021/05/02 04:14:49;;;;;;;9.67;6.60;;;16.80;99.90;;;;;;6253445;28;20500;-66
2021/05/02 04:17:51;;;;;;;9.43;6.93;;;16.90;99.90;;;;;;6254205;28;20478;-67
2021/05/02 04:20:54;;;;;;;6.47;5.70;;;16.80;99.90;;;;;;6244023;28;20481;-67
2021/05/02 04:23:56;;;;;;;11.67;6.27;;;16.70;99.90;;;;;;6254230;28;20490;-67
2021/05/02 04:27:00;;;;;;;7.20;5.57;;;16.80;99.90;;;;;;6253646;28;20475;-66
2021/05/02 04:30:04;;;;;;;10.33;7.00;;;16.70;99.90;;;;;;6253362;28;20974;-66
2021/05/02 04:33:09;;;;;;;9.53;6.27;;;16.70;99.90;;;;;;6253206;28;20487;-67
2021/05/02 04:36:11;;;;;;;7.73;6.00;;;16.70;99.90;;;;;;6253290;28;20470;-66
2021/05/02 04:39:13;;;;;;;10.83;6.23;;;16.70;99.90;;;;;;6253426;28;20474;-68
2021/05/02 04:42:15;;;;;;;9.83;6.70;;;16.80;99.90;;;;;;6252952;28;20471;-65
2021/05/02 04:45:19;;;;;;;8.93;6.20;;;16.80;99.90;;;;;;6253424;28;20477;-66
2021/05/02 04:48:21;;;;;;;7.10;5.70;;;16.90;99.90;;;;;;6252613;28;20481;-66
2021/05/02 04:51:23;;;;;;;11.40;6.17;;;17.00;99.90;;;;;;6252347;28;20486;-66
2021/05/02 04:54:25;;;;;;;8.40;5.70;;;17.20;99.90;;;;;;6252418;28;20490;-68
2021/05/02 04:57:27;;;;;;;7.20;5.83;;;17.30;99.90;;;;;;6253083;28;20474;-64
2021/05/02 05:00:30;;;;;;;10.10;5.97;;;17.30;99.90;;;;;;6252691;28;20481;-66
2021/05/02 05:03:33;;;;;;;8.33;5.23;;;17.30;99.90;;;;;;6252730;28;20479;-67
2021/05/02 05:06:35;;;;;;;9.07;5.67;;;17.40;99.90;;;;;;6252328;28;20483;-67
2021/05/02 05:09:38;;;;;;;6.83;4.90;;;17.50;99.90;;;;;;6250979;28;20488;-66
2021/05/02 05:12:40;;;;;;;9.67;5.70;;;17.70;99.90;;;;;;6252600;28;20862;-66
2021/05/02 05:15:43;;;;;;;6.60;5.03;;;17.90;99.90;;;;;;6250045;28;20486;-66
2021/05/02 05:18:45;;;;;;;6.20;4.40;;;18.00;99.90;;;;;;6250386;28;20922;-66
2021/05/02 05:21:48;;;;;;;7.30;4.67;;;18.10;99.90;;;;;;6246276;28;20447;-66
2021/05/02 05:24:51;;;;;;;6.07;4.40;;;18.20;99.90;;;;;;6251035;28;20799;-67
2021/05/02 05:27:53;;;;;;;6.60;4.80;;;18.20;99.90;;;;;;6250647;28;20955;-67
2021/05/02 05:30:56;;;;;;;7.50;4.83;;;18.10;99.90;;;;;;6252642;28;20485;-66
2021/05/02 05:33:59;;;;;;;6.03;5.43;;;18.10;99.90;;;;;;6252416;28;20466;-66
2021/05/02 05:37:01;;;;;;;6.47;5.73;;;18.20;99.90;;;;;;6252582;28;20481;-66
2021/05/02 05:40:05;;;;;;;5.83;5.20;;;18.10;99.90;;;;;;6252980;28;20471;-66
2021/05/02 05:43:08;;;;;;;5.70;4.43;;;18.00;99.90;;;;;;6252035;28;20467;-66
2021/05/02 05:46:13;;;;;;;4.63;3.90;;;18.00;99.90;;;;;;6251847;28;20804;-66
2021/05/02 05:49:18;;;;;;;3.67;3.30;;;17.90;99.90;;;;;;6251452;28;20541;-67
2021/05/02 05:52:22;;;;;;;5.70;1.80;;;17.80;99.90;;;;;;6251899;28;20471;-66
2021/05/02 05:55:24;;;;;;;2.37;1.00;;;17.70;99.90;;;;;;6251858;28;20978;-67
2021/05/02 05:58:29;;;;;;;1.03;0.77;;;17.60;99.90;;;;;;6251928;28;20478;-66
2021/05/02 06:01:33;;;;;;;1.83;0.63;;;17.40;99.90;;;;;;6250351;28;20471;-66
2021/05/02 06:04:35;;;;;;;1.60;0.53;;;17.30;99.90;;;;;;6251339;28;20965;-66
2021/05/02 06:07:37;;;;;;;0.70;0.70;;;17.10;99.90;;;;;;6251423;28;20479;-66
2021/05/02 06:10:40;;;;;;;1.33;0.43;;;17.00;99.90;;;;;;6251514;28;20536;-66
2021/05/02 06:13:42;;;;;;;0.80;0.33;;;16.90;99.50;;;;;;6251434;28;20483;-66
2021/05/02 06:16:45;;;;;;;1.10;0.50;;;16.80;98.70;;;;;;6251496;28;20533;-66
2021/05/02 06:19:48;;;;;;;1.37;0.47;;;16.70;99.20;;;;;;6251691;28;20562;-66
2021/05/02 06:22:50;;;;;;;0.40;0.40;;;16.70;99.20;;;;;;6250872;28;20925;-67
2021/05/02 06:25:52;;;;;;;1.37;0.40;;;16.70;99.00;;;;;;6251030;28;20495;-67
2021/05/02 06:28:55;;;;;;;2.93;0.40;;;16.70;98.00;;;;;;6250738;28;20470;-67
2021/05/02 06:31:58;;;;;;;0.73;0.40;;;16.70;97.80;;;;;;6250722;28;20482;-69
2021/05/02 06:35:01;;;;;;;1.43;0.30;;;16.80;97.60;;;;;;6250093;28;20475;-69
2021/05/02 06:38:03;;;;;;;2.47;0.50;;;17.00;97.70;;;;;;6250606;28;20479;-68
2021/05/02 06:41:10;;;;;;;0.67;0.43;;;16.90;96.40;;;;;;6250412;28;20477;-68
2021/05/02 06:44:13;;;;;;;1.43;0.50;;;16.90;96.60;;;;;;6250502;28;20479;-69
2021/05/02 06:47:16;;;;;;;0.50;0.30;;;16.90;96.30;;;;;;6250156;28;20546;-68
2021/05/02 06:50:18;;;;;;;0.90;0.20;;;16.90;95.40;;;;;;6250229;28;20475;-67
2021/05/02 06:53:20;;;;;;;1.23;0.30;;;16.90;94.40;;;;;;6250038;28;20483;-67
2021/05/02 06:56:23;;;;;;;0.60;0.30;;;16.80;93.20;;;;;;6249847;28;20471;-64
2021/05/02 06:59:25;;;;;;;0.70;0.30;;;16.90;91.80;;;;;;6250063;28;20474;-67
2021/05/02 07:02:28;;;;;;;0.97;0.40;;;17.10;91.10;;;;;;6249829;28;20510;-67
2021/05/02 07:05:30;;;;;;;0.40;0.20;;;17.20;91.70;;;;;;6249771;28;20532;-67
2021/05/02 07:08:36;;;;;;;1.17;1.07;;;17.20;91.00;;;;;;6249715;28;20817;-66
2021/05/02 07:11:38;;;;;;;0.50;0.30;;;17.20;90.30;;;;;;6249991;28;20471;-66
2021/05/02 07:14:40;;;;;;;0.40;0.30;;;17.10;88.80;;;;;;6249298;28;20490;-67
2021/05/02 07:17:43;;;;;;;0.50;0.30;;;17.10;89.90;;;;;;6249948;28;20467;-66
2021/05/02 07:20:47;;;;;;;0.50;0.30;;;17.00;89.40;;;;;;6249423;28;20482;-69
2021/05/02 07:23:51;;;;;;;0.50;0.30;;;16.90;88.70;;;;;;6249732;28;20479;-64
2021/05/02 07:26:54;;;;;;;1.00;0.43;;;16.90;87.10;;;;;;6249640;28;20478;-66
2021/05/02 07:29:56;;;;;;;0.60;0.40;;;16.90;86.70;;;;;;6248535;28;20979;-66
2021/05/02 07:32:59;;;;;;;0.40;0.30;;;16.90;87.70;;;;;;6238800;28;20483;-66
2021/05/02 07:36:03;;;;;;;0.77;0.47;;;17.10;87.90;;;;;;6247595;28;20570;-66
2021/05/02 07:39:07;;;;;;;0.50;0.40;;;17.30;86.50;;;;;;6247943;28;20478;-66
2021/05/02 07:42:09;;;;;;;0.53;0.30;;;17.70;86.20;;;;;;6247667;28;20482;-67
2021/05/02 07:45:12;;;;;;;0.50;0.30;;;18.00;84.20;;;;;;6248907;28;20640;-67
2021/05/02 07:48:15;;;;;;;0.77;0.40;;;18.10;81.40;;;;;;6248952;28;20481;-66
2021/05/02 07:51:18;;;;;;;1.00;0.40;;;18.10;76.40;;;;;;6249515;28;20471;-66
2021/05/02 07:54:20;;;;;;;0.70;0.40;;;18.20;73.90;;;;;;6248915;28;20483;-67
2021/05/02 07:57:22;;;;;;;1.20;0.40;;;18.40;72.70;;;;;;6249122;28;20481;-66
2021/05/02 08:00:28;;;;;;;0.60;0.37;;;18.70;72.20;;;;;;6248969;28;20482;-64
2021/05/02 08:03:31;;;;;;;0.60;0.30;;;18.50;72.10;;;;;;6248814;28;20493;-67
2021/05/02 08:06:33;;;;;;;0.80;0.40;;;18.10;74.00;;;;;;6248686;28;20500;-66
2021/05/02 08:09:37;;;;;;;1.00;0.40;;;17.70;70.50;;;;;;6249288;28;20454;-66
2021/05/02 08:12:39;;;;;;;1.27;0.40;;;17.50;71.40;;;;;;6248842;28;21014;-67
2021/05/02 08:15:42;;;;;;;0.50;0.33;;;17.40;72.60;;;;;;6248685;28;20498;-68
2021/05/02 08:18:45;;;;;;;0.40;0.30;;;17.40;72.50;;;;;;6249072;28;20593;-64
2021/05/02 08:21:48;;;;;;;0.50;0.20;;;17.20;71.40;;;;;;6248526;28;20447;-64
2021/05/02 08:24:51;;;;;;;0.83;0.40;;;17.10;73.10;;;;;;6247855;28;20479;-64
2021/05/02 08:27:53;;;;;;;1.90;0.60;;;17.10;74.60;;;;;;6252580;28;20469;-64
2021/05/02 08:30:56;;;;;;;0.50;0.33;;;17.30;72.60;;;;;;6253408;28;20523;-65
2021/05/02 08:33:59;;;;;;;0.60;0.30;;;17.60;71.60;;;;;;6248065;28;20478;-64
2021/05/02 08:37:01;;;;;;;0.77;0.40;;;17.90;71.10;;;;;;6253077;28;20477;-65
2021/05/02 08:40:04;;;;;;;0.50;0.30;;;18.20;69.80;;;;;;6252687;28;20510;-65
2021/05/02 08:43:08;;;;;;;0.80;0.30;;;18.20;69.40;;;;;;6253060;28;20471;-65
2021/05/02 08:46:10;;;;;;;0.50;0.20;;;18.30;70.10;;;;;;6252596;28;20473;-64
2021/05/02 08:49:13;;;;;;;0.50;0.30;;;18.30;65.50;;;;;;6253043;28;20478;-64
2021/05/02 08:52:15;;;;;;;0.63;0.30;;;18.40;66.50;;;;;;6252512;28;20477;-64
2021/05/02 08:55:17;;;;;;;0.43;0.23;;;18.60;66.60;;;;;;6252440;28;20479;-64
2021/05/02 08:58:22;;;;;;;1.47;0.53;;;18.80;65.40;;;;;;6252322;28;20477;-67
2021/05/02 09:01:29;;;;;;;2.20;0.93;;;19.10;62.40;;;;;;6239852;28;20475;-66
2021/05/02 09:04:32;;;;;;;0.50;0.30;;;19.30;60.90;;;;;;6239679;28;20564;-67
2021/05/02 09:07:42;;;;;;;1.80;1.70;;;19.20;57.60;;;;;;6248465;28;20987;-63
2021/05/02 09:10:49;;;;;;;0.57;0.40;;;19.10;57.00;;;;;;6227841;28;20475;-64
2021/05/02 09:13:53;;;;;;;0.50;0.30;;;18.80;55.90;;;;;;6227130;28;20490;-66
2021/05/02 09:16:57;;;;;;;2.17;0.97;;;18.70;55.30;;;;;;6237004;28;20473;-64
2021/05/02 09:20:02;;;;;;;0.80;0.30;;;18.70;53.40;;;;;;6251416;28;20473;-66
2021/05/02 09:23:04;;;;;;;0.77;0.20;;;18.50;53.00;;;;;;6251742;28;20955;-67
2021/05/02 09:26:21;;;;;;;0.60;0.40;;;18.60;54.10;;;;;;6251455;28;20838;-64
2021/05/02 09:29:23;;;;;;;0.70;0.40;;;18.70;54.20;;;;;;6251888;28;20475;-64
2021/05/02 09:32:39;;;;;;;0.83;0.40;;;18.80;54.80;;;;;;6251087;28;20216;-68
2021/05/02 09:35:51;;;;;;;0.40;0.20;;;18.90;54.10;;;;;;6251300;28;20486;-65
2021/05/02 09:38:53;;;;;;;1.67;0.30;;;18.90;53.50;;;;;;6251294;28;20477;-65
2021/05/02 09:42:03;;;;;;;0.60;0.30;;;18.90;53.20;;;;;;6251413;28;20828;-63
2021/05/02 09:45:09;;;;;;;0.50;0.40;;;19.00;53.10;;;;;;6250971;28;20975;-63
2021/05/02 09:48:34;;;;;;;0.50;0.30;;;18.90;51.60;;;;;;6251267;28;20467;-65
2021/05/02 09:51:38;;;;;;;0.73;0.50;;;18.80;51.90;;;;;;6250904;28;20479;-65
2021/05/02 09:54:43;;;;;;;0.60;0.40;;;18.80;52.50;;;;;;6250813;28;20943;-65
2021/05/02 09:57:52;;;;;;;1.63;1.13;;;18.60;51.90;;;;;;6250910;28;20462;-66
2021/05/02 10:00:56;;;;;;;0.63;0.63;;;18.50;49.80;;;;;;6245953;28;20467;-65
2021/05/02 10:04:00;;;;;;;0.93;0.63;;;18.20;49.60;;;;;;6250337;28;20463;-65
2021/05/02 10:07:10;;;;;;;1.33;0.87;;;18.00;50.40;;;;;;6250742;28;20466;-65
2021/05/02 10:10:13;;;;;;;1.33;0.40;;;17.80;52.10;;;;;;6250623;28;20560;-67
2021/05/02 10:13:15;;;;;;;0.43;0.20;;;17.90;52.50;;;;;;6250662;28;20478;-67
2021/05/02 10:16:18;;;;;;;1.37;0.37;;;18.00;51.10;;;;;;6250210;28;20947;-68
2021/05/02 10:19:21;;;;;;;0.50;0.40;;;18.10;51.80;;;;;;6250406;28;20829;-69
2021/05/02 10:22:24;;;;;;;0.50;0.20;;;18.10;50.40;;;;;;6251036;28;20463;-70
2021/05/02 10:25:27;;;;;;;0.43;0.30;;;18.10;49.80;;;;;;6249220;28;20474;-68
2021/05/02 10:28:33;;;;;;;0.43;0.23;;;18.00;49.80;;;;;;6250153;28;20785;-70
2021/05/02 10:31:41;;;;;;;0.50;0.30;;;17.90;50.30;;;;;;6250033;28;20975;-71
2021/05/02 10:34:46;;;;;;;0.40;0.40;;;18.00;50.50;;;;;;6249931;28;20508;-65
2021/05/02 10:37:56;;;;;;;0.40;0.30;;;18.40;50.40;;;;;;6249749;28;20471;-66
2021/05/02 10:41:27;;;;;;;0.80;0.47;;;18.70;49.40;;;;;;6250356;28;20475;-66
2021/05/02 10:44:32;;;;;;;1.43;0.53;;;18.80;48.90;;;;;;6240844;28;20475;-69
2021/05/02 10:47:42;;;;;;;0.53;0.53;;;18.90;50.40;;;;;;6248918;28;20812;-67
2021/05/02 10:50:46;;;;;;;0.90;0.50;;;18.80;49.30;;;;;;6249884;28;20475;-71
2021/05/02 10:54:09;;;;;;;1.73;0.40;;;19.10;50.60;;;;;;6249330;28;20232;-66
2021/05/02 10:57:32;;;;;;;0.83;0.30;;;19.30;50.20;;;;;;6249897;28;20471;-65
2021/05/02 11:00:47;;;;;;;0.60;0.40;;;19.60;48.20;;;;;;6247045;28;20224;-67
2021/05/02 11:03:53;;;;;;;0.50;0.30;;;20.10;48.70;;;;;;6249429;28;20677;-68
2021/05/02 11:06:56;;;;;;;0.90;0.90;;;20.70;47.40;;;;;;6249093;28;20229;-66
2021/05/02 11:09:59;;;;;;;0.60;0.37;;;21.30;47.70;;;;;;6225521;28;20225;-61
2021/05/02 11:13:25;;;;;;;0.63;0.40;;;21.60;45.40;;;;;;6225153;28;20237;-64
2021/05/02 11:16:27;;;;;;;0.80;0.80;;;21.60;45.50;;;;;;6225759;28;20241;-66
2021/05/02 11:19:40;;;;;;;0.67;0.40;;;21.50;47.20;;;;;;6224749;28;20233;-66
2021/05/02 11:22:48;;;;;;;0.50;0.30;;;21.60;46.30;;;;;;6224885;28;20239;-64
2021/05/02 11:25:56;;;;;;;0.60;0.37;;;21.80;44.20;;;;;;6224963;28;20234;-63
2021/05/02 11:29:11;;;;;;;0.50;0.20;;;21.80;43.40;;;;;;6224938;28;20732;-65
2021/05/02 11:32:33;;;;;;;2.10;0.30;;;21.90;42.10;;;;;;6224503;28;20673;-65
2021/05/02 11:35:56;;;;;;;0.93;0.30;;;22.30;43.90;;;;;;6237759;28;20239;-64
2021/05/02 11:38:58;;;;;;;0.60;0.33;;;22.60;43.00;;;;;;6249169;28;20691;-67
2021/05/02 11:42:05;;;;;;;0.50;0.40;;;23.00;43.10;;;;;;6249069;28;20260;-65
2021/05/02 11:45:09;;;;;;;0.60;0.33;;;22.90;42.70;;;;;;6249045;28;20872;-61
2021/05/02 11:48:17;;;;;;;0.57;0.30;;;22.60;42.70;;;;;;6249098;28;20232;-62
2021/05/02 11:51:26;;;;;;;0.80;0.23;;;22.60;42.40;;;;;;6248954;28;20231;-60
2021/05/02 11:54:29;;;;;;;0.50;0.30;;;22.60;43.60;;;;;;6248882;28;20236;-61
2021/05/02 11:57:43;;;;;;;0.40;0.20;;;22.50;42.50;;;;;;6248887;28;20676;-61
2021/05/02 12:00:46;;;;;;;0.40;0.20;;;22.40;43.40;;;;;;6251504;28;20221;-61
2021/05/02 12:03:49;;;;;;;0.70;0.53;;;22.30;44.00;;;;;;6253670;28;20224;-62
2021/05/02 12:06:57;;;;;;;0.60;0.43;;;22.40;44.80;;;;;;6253428;28;20232;-62
2021/05/02 12:09:59;;;;;;;0.60;0.30;;;22.50;42.10;;;;;;6229301;28;20701;-63
2021/05/02 12:13:02;;;;;;;0.97;0.30;;;22.60;43.10;;;;;;6229003;28;20243;-63
2021/05/02 12:16:09;;;;;;;0.50;0.20;;;22.70;42.00;;;;;;6229108;28;20239;-63
2021/05/02 12:19:11;;;;;;;0.60;0.30;;;22.80;41.80;;;;;;6229333;28;20302;-62
2021/05/02 12:22:14;;;;;;;0.70;0.30;;;22.80;41.40;;;;;;6229007;28;20233;-64
2021/05/02 12:25:16;;;;;;;0.80;0.47;;;22.90;41.20;;;;;;6228639;28;20695;-63
2021/05/02 12:28:19;;;;;;;0.87;0.30;;;23.20;40.80;;;;;;6228471;28;20545;-63
2021/05/02 12:31:21;;;;;;;0.93;0.40;;;23.40;40.40;;;;;;6228457;28;20225;-63
2021/05/02 12:34:25;;;;;;;0.50;0.20;;;23.50;40.50;;;;;;6228183;28;20232;-62
2021/05/02 12:37:34;;;;;;;0.50;0.30;;;23.60;39.70;;;;;;6228550;28;20320;-61
2021/05/02 12:40:49;;;;;;;0.90;0.40;;;23.50;39.50;;;;;;6228170;28;20253;-60
2021/05/02 12:43:53;;;;;;;0.50;0.30;;;23.40;39.90;;;;;;6228523;28;20743;-62
2021/05/02 12:46:57;;;;;;;0.50;0.23;;;23.30;39.90;;;;;;6228116;28;20248;-61
2021/05/02 12:50:01;;;;;;;1.20;0.30;;;23.10;38.90;;;;;;6248898;28;20220;-65
2021/05/02 12:53:03;;;;;;;0.60;0.30;;;23.10;38.80;;;;;;6242520;28;20240;-64
2021/05/02 12:56:06;;;;;;;0.60;0.40;;;22.80;39.70;;;;;;6251676;28;20240;-65
2021/05/02 12:59:39;;;;;;;0.83;0.37;;;22.50;39.50;;;;;;6249347;28;20232;-65
2021/05/02 13:02:44;;;;;;;0.70;0.43;;;22.00;39.40;;;;;;6244728;28;20324;-65
2021/05/02 13:06:01;;;;;;;0.50;0.20;;;21.80;40.60;;;;;;6248226;28;20247;-65
2021/05/02 13:09:07;;;;;;;0.60;0.47;;;21.40;40.10;;;;;;6248531;28;20224;-64
2021/05/02 13:12:11;;;;;;;0.50;0.30;;;21.10;41.80;;;;;;6249485;28;20231;-64
2021/05/02 13:16:00;;;;;;;;;;;;;;;;;;;;;
2021/05/02 13:28:15;;;;;;;0.73;0.50;;;20.50;41.60;;;;;;6173861;28;20240;-65
2021/05/02 14:04:13;;;;;;;1.90;0.70;;;19.20;42.10;;;;;;5946850;29;20808;-65
2021/05/02 14:07:16;;;;;;;0.90;0.60;;;19.00;42.40;;;;;;6007433;29;20244;-65
2021/05/02 14:10:18;;;;;;;0.63;0.40;;;18.90;42.00;;;;;;6011611;29;20480;-65
2021/05/02 14:13:20;;;;;;;0.60;0.60;;;18.80;43.20;;;;;;6011902;29;20287;-65
2021/05/02 14:16:22;;;;;;;0.80;0.60;;;18.90;43.50;;;;;;6048096;29;20475;-64
2021/05/02 14:19:25;;;;;;;0.60;0.57;;;19.00;43.10;;;;;;6127531;28;20825;-65
2021/05/02 14:22:27;;;;;;;0.97;0.60;;;18.90;41.90;;;;;;6174739;28;20582;-65
2021/05/02 14:25:30;;;;;;;0.73;0.70;;;18.90;41.80;;;;;;6195280;28;20477;-64
2021/05/02 14:28:32;;;;;;;0.60;0.57;;;18.80;41.80;;;;;;6201588;28;20813;-64
2021/05/02 14:31:35;;;;;;;0.70;0.63;;;18.40;42.90;;;;;;6201545;28;20552;-65
2021/05/02 14:34:38;;;;;;;1.27;0.70;;;18.20;42.90;;;;;;6201144;28;20538;-64
2021/05/02 14:37:40;;;;;;;0.70;0.70;;;17.90;43.00;;;;;;6201369;28;20477;-64
2021/05/02 14:40:43;;;;;;;0.67;0.63;;;17.80;43.50;;;;;;6201502;28;20479;-64
2021/05/02 14:43:45;;;;;;;0.50;0.40;;;17.60;43.90;;;;;;6200816;28;20476;-64
2021/05/02 14:46:47;;;;;;;1.00;0.90;;;17.60;44.40;;;;;;6201228;28;20480;-64
2021/05/02 14:49:54;;;;;;;0.80;0.67;;;17.40;44.30;;;;;;6206854;28;20491;-64
2021/05/02 14:52:57;;;;;;;1.00;0.90;;;17.20;44.50;;;;;;6225816;28;20476;-64
2021/05/02 14:55:59;;;;;;;1.27;0.90;;;17.00;45.20;;;;;;6225371;28;20468;-64
2021/05/02 14:59:03;;;;;;;0.80;0.80;;;16.90;45.70;;;;;;6225022;28;20476;-64
2021/05/02 15:02:07;;;;;;;1.10;1.00;;;16.90;45.80;;;;;;6223960;28;20476;-63
2021/05/02 15:05:12;;;;;;;0.80;0.80;;;16.70;46.70;;;;;;6224533;28;20486;-65
2021/05/02 15:08:14;;;;;;;1.10;1.00;;;16.60;46.60;;;;;;6225055;28;20979;-65
2021/05/02 15:11:16;;;;;;;1.00;0.70;;;16.60;47.40;;;;;;6224693;28;20476;-64
2021/05/02 15:14:19;;;;;;;2.67;0.50;;;16.50;47.50;;;;;;6225198;28;20569;-64
2021/05/02 15:17:21;;;;;;;0.90;0.80;;;16.50;48.40;;;;;;6224751;28;20480;-64
2021/05/02 15:20:24;;;;;;;0.83;0.80;;;16.50;47.60;;;;;;6224988;28;20582;-64
2021/05/02 15:23:26;;;;;;;0.90;0.90;;;16.40;47.80;;;;;;6224414;28;20487;-64
2021/05/02 15:26:29;;;;;;;0.80;0.80;;;16.40;47.90;;;;;;6224552;28;20976;-64
2021/05/02 15:29:45;;;;;;;1.37;1.27;;;16.20;47.90;;;;;;6224448;28;20514;-65
2021/05/02 15:32:47;;;;;;;0.80;0.80;;;16.10;48.30;;;;;;6224498;28;20526;-65
2021/05/02 15:35:51;;;;;;;0.83;0.80;;;16.20;51.30;;;;;;6224014;28;20553;-65
2021/05/02 15:40:15;;;;;;;1.43;1.17;;;16.30;49.90;;;;;;6303950;27;20579;-71
2021/05/02 15:47:01;;;;;;;3.50;1.77;;;16.10;47.60;;;;;;6340019;27;762676;-66
2021/05/02 15:50:04;;;;;;;3.50;1.77;;;15.90;48.80;;;;;;6320414;28;20564;-70
2021/05/02 15:53:06;;;;;;;1.40;1.30;;;15.90;49.40;;;;;;6320045;28;20818;-67
2021/05/02 15:56:08;;;;;;;1.60;1.50;;;15.80;50.20;;;;;;6320642;28;20465;-67
2021/05/02 15:59:11;;;;;;;1.20;1.10;;;15.70;50.40;;;;;;6319969;28;20464;-66
2021/05/02 16:02:14;;;;;;;3.47;1.10;;;15.60;49.70;;;;;;6320094;28;20464;-65
2021/05/02 16:05:18;;;;;;;1.30;1.20;;;15.50;50.30;;;;;;6307488;28;20823;-66
2021/05/02 16:08:23;;;;;;;1.10;1.07;;;15.20;50.10;;;;;;6306955;28;20506;-66
2021/05/02 16:11:27;;;;;;;1.07;0.93;;;15.00;52.00;;;;;;6321870;28;20461;-75
2021/05/02 16:14:29;;;;;;;1.80;1.40;;;15.10;51.70;;;;;;6321091;28;20496;-67
2021/05/02 16:17:32;;;;;;;1.13;1.03;;;15.10;52.10;;;;;;6336460;28;20966;-73
2021/05/02 16:20:35;;;;;;;1.10;1.00;;;15.00;52.20;;;;;;6331488;28;20492;-67
2021/05/02 16:23:38;;;;;;;5.10;3.50;;;15.10;53.20;;;;;;6319724;28;20487;-69
2021/05/02 16:26:40;;;;;;;1.00;1.00;;;15.10;53.00;;;;;;6335628;28;20915;-69
2021/05/02 16:29:42;;;;;;;1.67;1.57;;;14.90;53.40;;;;;;6327721;28;20950;-66
2021/05/02 16:32:45;;;;;;;1.50;1.40;;;14.90;53.50;;;;;;6302909;28;20462;-63
2021/05/02 16:35:49;;;;;;;1.40;1.20;;;14.80;53.30;;;;;;6314076;28;20496;-65
2021/05/02 16:38:51;;;;;;;1.27;1.20;;;14.90;53.80;;;;;;6287591;28;20470;-65
2021/05/02 16:41:53;;;;;;;1.10;1.00;;;15.00;54.20;;;;;;6269933;28;20478;-65
2021/05/02 16:44:56;;;;;;;0.80;0.80;;;14.90;54.30;;;;;;6268787;28;21111;-65
2021/05/02 16:47:59;;;;;;;1.10;1.00;;;14.90;54.10;;;;;;6283823;28;20473;-69